Weather at C 817 Heliport

Public forecast

Using degrees Celsius for public forecast. Weather courtesy of forecast.io.

Closest aviation weather report (METAR) to C 817 Heliport

Closest report is Gimhae International Airport, 9.6 nm (17.9 km) NW. Retrieved 2020/09/26 08:00 UTC (33 minutes ago):

RKPK 260800Z 01015KT 9999 FEW050 25/10 Q1014

Closest aviation forecast (TAF) to C 817 Heliport

Closest forecast is Gimhae International Airport, 9.6 nm (17.9 km) NW. Retrieved 2020/09/26 06:00 UTC (3 hours ago):

TAF RKPK 260500Z 2606/2712 03010KT 9999 SCT030 TN14/2621Z TX25/2706Z BECMG 2609/2610 33006KT BECMG 2703/2704 03010KT